createdAt,value
2018-09-18T00:00:38.405Z,0
2018-09-18T00:01:38.402Z,0
2018-09-18T00:02:38.139Z,0
2018-09-18T00:03:38.126Z,0
2018-09-18T00:04:38.121Z,0
2018-09-18T00:05:38.366Z,0
2018-09-18T00:06:38.109Z,0
2018-09-18T00:07:38.355Z,0
2018-09-18T00:08:38.092Z,0
2018-09-18T00:09:38.345Z,0
2018-09-18T00:10:38.084Z,0
2018-09-18T00:11:38.340Z,0
2018-09-18T00:12:38.327Z,0
2018-09-18T00:13:38.067Z,0
2018-09-18T00:14:37.792Z,0
2018-09-18T00:15:38.302Z,0
2018-09-18T00:16:38.040Z,0
2018-09-18T00:17:38.287Z,0
2018-09-18T00:18:38.032Z,0
2018-09-18T00:19:37.769Z,0
2018-09-18T00:20:38.011Z,0
2018-09-18T00:21:38.015Z,0
2018-09-18T00:22:38.252Z,0
2018-09-18T00:23:38.250Z,0
2018-09-18T00:24:38.243Z,0
2018-09-18T00:25:38.245Z,0
2018-09-18T00:26:38.234Z,0
2018-09-18T00:27:38.229Z,0
2018-09-18T00:28:37.971Z,0
2018-09-18T00:29:37.699Z,0
2018-09-18T00:30:38.210Z,0
2018-09-18T00:31:37.938Z,0
2018-09-18T00:32:38.190Z,0
2018-09-18T00:33:37.667Z,0
2018-09-18T00:34:38.188Z,0
2018-09-18T00:35:37.912Z,0
2018-09-18T00:36:38.166Z,0
2018-09-18T00:37:38.158Z,0
2018-09-18T00:38:38.148Z,0
2018-09-18T00:39:38.140Z,0
2018-09-18T00:40:38.138Z,0
2018-09-18T00:41:37.875Z,0
2018-09-18T00:42:37.609Z,0
2018-09-18T00:43:37.859Z,0
2018-09-18T00:44:38.105Z,0
2018-09-18T00:45:38.100Z,0
2018-09-18T00:46:37.585Z,0
2018-09-18T00:47:38.090Z,0
2018-09-18T00:48:37.575Z,0
2018-09-18T00:49:38.074Z,0
2018-09-18T00:50:37.808Z,0
2018-09-18T00:51:38.060Z,0
2018-09-18T00:52:37.810Z,0
2018-09-18T00:53:38.049Z,0
2018-09-18T00:54:38.038Z,0
2018-09-18T00:55:37.776Z,0
2018-09-18T00:56:38.035Z,0
2018-09-18T00:57:38.015Z,0
2018-09-18T00:58:38.017Z,0
2018-09-18T00:59:37.761Z,0
2018-09-18T01:00:37.998Z,0
2018-09-18T01:01:37.997Z,0
2018-09-18T01:02:37.732Z,0
2018-09-18T01:03:37.717Z,0
2018-09-18T01:04:37.719Z,0
2018-09-18T01:05:37.708Z,0
2018-09-18T01:06:37.957Z,0
2018-09-18T01:07:37.442Z,0
2018-09-18T01:08:37.687Z,0
2018-09-18T01:09:37.935Z,0
2018-09-18T01:10:37.671Z,0
2018-09-18T01:11:37.673Z,0
2018-09-18T01:12:37.657Z,0
2018-09-18T01:13:37.658Z,0
2018-09-18T01:14:37.895Z,0
2018-09-18T01:15:37.896Z,0
2018-09-18T01:16:37.889Z,0
2018-09-18T01:17:37.877Z,0
2018-09-18T01:18:37.617Z,0
2018-09-18T01:19:37.866Z,0
2018-09-18T01:20:37.857Z,0
2018-09-18T01:21:37.906Z,0
2018-09-18T01:22:37.840Z,0
2018-09-18T01:23:37.837Z,0
2018-09-18T01:24:37.829Z,0
2018-09-18T01:25:37.574Z,0
2018-09-18T01:26:37.578Z,0
2018-09-18T01:27:37.302Z,0
2018-09-18T01:28:37.799Z,0
2018-09-18T01:29:37.542Z,0
2018-09-18T01:30:37.532Z,0
2018-09-18T01:31:37.798Z,0
2018-09-18T01:32:37.522Z,0
2018-09-18T01:33:37.254Z,0
2018-09-18T01:34:37.503Z,0
2018-09-18T01:35:37.496Z,0
2018-09-18T01:36:37.493Z,0
2018-09-18T01:37:37.488Z,0
2018-09-18T01:38:37.736Z,0
2018-09-18T01:39:37.741Z,0
2018-09-18T01:40:37.466Z,0
2018-09-18T01:41:37.201Z,0
2018-09-18T01:42:37.768Z,0
2018-09-18T01:43:37.724Z,0
2018-09-18T01:44:37.696Z,0
2018-09-18T01:45:37.435Z,0
2018-09-18T01:46:37.427Z,0
2018-09-18T01:47:37.683Z,0
2018-09-18T01:48:37.664Z,0
2018-09-18T01:49:37.663Z,0
2018-09-18T01:50:37.657Z,0
2018-09-18T01:51:37.385Z,0
2018-09-18T01:52:37.635Z,0
2018-09-18T01:53:37.630Z,0
2018-09-18T01:54:37.369Z,0
2018-09-18T01:55:37.116Z,0
2018-09-18T01:56:37.360Z,0
2018-09-18T01:57:37.604Z,0
2018-09-18T01:58:37.592Z,0
2018-09-18T01:59:37.335Z,0
2018-09-18T02:00:37.579Z,0
2018-09-18T02:01:37.575Z,0
2018-09-18T02:02:37.579Z,0
2018-09-18T02:03:37.313Z,0
2018-09-18T02:04:37.042Z,0
2018-09-18T02:05:37.550Z,0
2018-09-18T02:06:37.291Z,0
2018-09-18T02:07:37.535Z,0
2018-09-18T02:08:37.271Z,0
2018-09-18T02:09:37.008Z,0
2018-09-18T02:10:37.260Z,0
2018-09-18T02:11:37.519Z,0
2018-09-18T02:12:37.250Z,0
2018-09-18T02:13:37.236Z,0
2018-09-18T02:14:37.232Z,0
2018-09-18T02:15:37.231Z,0
2018-09-18T02:16:37.224Z,0
2018-09-18T02:17:36.956Z,0
2018-09-18T02:18:36.943Z,0
2018-09-18T02:19:37.201Z,0
2018-09-18T02:20:37.450Z,0
2018-09-18T02:21:37.181Z,0
2018-09-18T02:22:36.916Z,0
2018-09-18T02:23:37.166Z,0
2018-09-18T02:24:37.165Z,0
2018-09-18T02:25:37.421Z,0
2018-09-18T02:26:37.395Z,0
2018-09-18T02:27:37.135Z,0
2018-09-18T02:28:37.389Z,0
2018-09-18T02:29:37.394Z,0
2018-09-18T02:30:36.611Z,0
2018-09-18T02:31:37.370Z,0
2018-09-18T02:32:36.847Z,0
2018-09-18T02:33:37.356Z,0
2018-09-18T02:34:37.090Z,0
2018-09-18T02:35:37.075Z,0
2018-09-18T02:36:37.330Z,0
2018-09-18T02:37:37.332Z,0
2018-09-18T02:38:37.064Z,0
2018-09-18T02:39:37.064Z,0
2018-09-18T02:40:37.309Z,0
2018-09-18T02:41:37.302Z,0
2018-09-18T02:42:37.042Z,0
2018-09-18T02:43:37.283Z,0
2018-09-18T02:44:37.275Z,0
2018-09-18T02:45:37.011Z,0
2018-09-18T02:46:37.279Z,0
2018-09-18T02:47:37.265Z,0
2018-09-18T02:48:37.253Z,0
2018-09-18T02:49:37.246Z,0
2018-09-18T02:50:36.981Z,0
2018-09-18T02:51:36.979Z,0
2018-09-18T02:52:37.226Z,0
2018-09-18T02:53:37.217Z,0
2018-09-18T02:54:37.213Z,0
2018-09-18T02:55:36.945Z,0
2018-09-18T02:56:36.682Z,0
2018-09-18T02:57:37.197Z,0
2018-09-18T02:58:36.922Z,0
2018-09-18T02:59:36.919Z,0
2018-09-18T03:00:36.917Z,0
2018-09-18T03:01:36.907Z,0
2018-09-18T03:02:37.173Z,0
2018-09-18T03:03:36.890Z,0
2018-09-18T03:04:37.140Z,0
2018-09-18T03:05:37.125Z,0
2018-09-18T03:06:37.136Z,0
2018-09-18T03:07:36.871Z,0
2018-09-18T03:08:37.107Z,0
2018-09-18T03:09:36.850Z,0
2018-09-18T03:10:36.847Z,0
2018-09-18T03:11:36.578Z,0
2018-09-18T03:12:37.102Z,0
2018-09-18T03:13:36.826Z,0
2018-09-18T03:14:36.554Z,0
2018-09-18T03:15:36.812Z,0
2018-09-18T03:16:36.799Z,0
2018-09-18T03:17:37.058Z,0
2018-09-18T03:18:37.040Z,0
2018-09-18T03:19:37.046Z,0
2018-09-18T03:20:36.780Z,0
2018-09-18T03:21:37.037Z,0
2018-09-18T03:22:36.754Z,0
2018-09-18T03:23:36.742Z,0
2018-09-18T03:24:37.005Z,0
2018-09-18T03:25:37.006Z,0
2018-09-18T03:26:36.481Z,0
2018-09-18T03:27:37.240Z,0
2018-09-18T03:28:36.974Z,0
2018-09-18T03:29:36.710Z,0
2018-09-18T03:30:36.965Z,0
2018-09-18T03:31:36.449Z,0
2018-09-18T03:32:36.954Z,0
2018-09-18T03:33:36.682Z,0
2018-09-18T03:34:36.930Z,0
2018-09-18T03:35:37.101Z,0
2018-09-18T03:36:36.715Z,0
2018-09-18T03:37:36.667Z,0
2018-09-18T03:38:36.653Z,0
2018-09-18T03:39:36.388Z,0
2018-09-18T03:40:36.380Z,0
2018-09-18T03:41:36.632Z,0
2018-09-18T03:42:36.630Z,0
2018-09-18T03:43:36.608Z,0
2018-09-18T03:44:36.864Z,0
2018-09-18T03:45:36.602Z,0
2018-09-18T03:46:36.589Z,0
2018-09-18T03:47:36.846Z,0
2018-09-18T03:48:36.832Z,0
2018-09-18T03:49:36.059Z,0
2018-09-18T03:50:36.822Z,0
2018-09-18T03:51:36.813Z,0
2018-09-18T03:52:36.825Z,0
2018-09-18T03:53:36.540Z,0
2018-09-18T03:54:36.538Z,0
2018-09-18T03:55:36.789Z,0
2018-09-18T03:56:36.827Z,0
2018-09-18T03:57:36.521Z,0
2018-09-18T03:58:36.770Z,0
2018-09-18T03:59:36.818Z,0
2018-09-18T04:00:36.510Z,0
2018-09-18T04:01:36.486Z,0
2018-09-18T04:02:36.476Z,0
2018-09-18T04:03:36.479Z,0
2018-09-18T04:04:36.720Z,0
2018-09-18T04:05:36.455Z,0
2018-09-18T04:06:36.716Z,0
2018-09-18T04:07:36.708Z,0
2018-09-18T04:08:36.692Z,0
2018-09-18T04:09:36.698Z,0
2018-09-18T04:10:36.684Z,0
2018-09-18T04:11:36.714Z,0
2018-09-18T04:12:36.675Z,0
2018-09-18T04:13:36.668Z,0
2018-09-18T04:14:36.657Z,0
2018-09-18T04:15:36.391Z,0
2018-09-18T04:16:36.634Z,0
2018-09-18T04:17:36.548Z,0
2018-09-18T04:18:36.635Z,0
2018-09-18T04:19:36.360Z,0
2018-09-18T04:20:36.098Z,0
2018-09-18T04:21:36.611Z,0
2018-09-18T04:22:36.601Z,0
2018-09-18T04:23:36.090Z,4
2018-09-18T04:24:36.588Z,4
2018-09-18T04:25:36.322Z,0
2018-09-18T04:26:36.062Z,4
2018-09-18T04:27:36.586Z,4
2018-09-18T04:28:36.304Z,8
2018-09-18T04:29:36.295Z,8
2018-09-18T04:30:36.034Z,8
2018-09-18T04:31:36.542Z,12
2018-09-18T04:32:36.532Z,12
2018-09-18T04:33:36.279Z,16
2018-09-18T04:34:36.257Z,16
2018-09-18T04:35:36.264Z,20
2018-09-18T04:36:36.505Z,24
2018-09-18T04:37:36.243Z,28
2018-09-18T04:38:36.231Z,36
2018-09-18T04:39:36.488Z,40
2018-09-18T04:40:36.220Z,44
2018-09-18T04:41:36.209Z,48
2018-09-18T04:42:35.955Z,60
2018-09-18T04:43:36.196Z,64
2018-09-18T04:44:36.190Z,76
2018-09-18T04:45:36.179Z,84
2018-09-18T04:46:36.179Z,92
2018-09-18T04:47:36.433Z,100
2018-09-18T04:48:36.428Z,108
2018-09-18T04:49:36.155Z,120
2018-09-18T04:50:36.149Z,128
2018-09-18T04:51:36.400Z,140
2018-09-18T04:52:36.146Z,148
2018-09-18T04:53:35.869Z,160
2018-09-18T04:54:36.127Z,176
2018-09-18T04:55:36.380Z,188
2018-09-18T04:56:36.360Z,204
2018-09-18T04:57:35.839Z,220
2018-09-18T04:58:36.093Z,240
2018-09-18T04:59:36.083Z,256
2018-09-18T05:00:36.334Z,272
2018-09-18T05:01:36.328Z,292
2018-09-18T05:02:36.075Z,312
2018-09-18T05:03:35.795Z,332
2018-09-18T05:04:36.054Z,352
2018-09-18T05:05:36.040Z,372
2018-09-18T05:06:36.031Z,392
2018-09-18T05:07:36.031Z,412
2018-09-18T05:08:36.287Z,432
2018-09-18T05:09:36.015Z,452
2018-09-18T05:10:36.268Z,476
2018-09-18T05:11:36.276Z,496
2018-09-18T05:12:36.264Z,520
2018-09-18T05:13:35.735Z,540
2018-09-18T05:14:36.235Z,568
2018-09-18T05:15:35.973Z,592
2018-09-18T05:16:35.706Z,620
2018-09-18T05:17:35.955Z,648
2018-09-18T05:18:35.962Z,680
2018-09-18T05:19:36.197Z,712
2018-09-18T05:20:36.188Z,748
2018-09-18T05:21:36.184Z,788
2018-09-18T05:22:35.920Z,828
2018-09-18T05:23:36.168Z,872
2018-09-18T05:24:36.172Z,916
2018-09-18T05:25:36.534Z,972
2018-09-18T05:26:35.893Z,1028
2018-09-18T05:27:36.146Z,1088
2018-09-18T05:28:36.136Z,1148
2018-09-18T05:29:36.135Z,1204
2018-09-18T05:30:36.124Z,1264
2018-09-18T05:31:35.861Z,1304
2018-09-18T05:32:35.595Z,1344
2018-09-18T05:33:35.996Z,1380
2018-09-18T05:34:35.844Z,1412
2018-09-18T05:35:35.830Z,1448
2018-09-18T05:36:36.081Z,1492
2018-09-18T05:37:36.077Z,1528
2018-09-18T05:38:35.548Z,1564
2018-09-18T05:39:35.807Z,1592
2018-09-18T05:40:36.196Z,1612
2018-09-18T05:41:35.791Z,1636
2018-09-18T05:42:36.046Z,1672
2018-09-18T05:43:36.029Z,1708
2018-09-18T05:44:36.025Z,1744
2018-09-18T05:45:35.757Z,1780
2018-09-18T05:46:36.017Z,1808
2018-09-18T05:47:36.003Z,1836
2018-09-18T05:48:35.995Z,1860
2018-09-18T05:49:35.735Z,1892
2018-09-18T05:50:35.215Z,1928
2018-09-18T05:51:35.717Z,1956
2018-09-18T05:52:35.985Z,1980
2018-09-18T05:53:35.961Z,2004
2018-09-18T05:54:35.703Z,2028
2018-09-18T05:55:35.950Z,2064
2018-09-18T05:56:35.428Z,2088
2018-09-18T05:57:35.943Z,2120
2018-09-18T05:58:35.928Z,2148
2018-09-18T05:59:35.927Z,2176
2018-09-18T06:00:35.917Z,2216
2018-09-18T06:01:35.909Z,2252
2018-09-18T06:02:35.654Z,2288
2018-09-18T06:03:35.678Z,2328
2018-09-18T06:04:35.642Z,2372
2018-09-18T06:05:35.890Z,2412
2018-09-18T06:06:35.878Z,2440
2018-09-18T06:07:35.623Z,2472
2018-09-18T06:08:35.865Z,2492
2018-09-18T06:09:35.868Z,2516
2018-09-18T06:10:35.598Z,2540
2018-09-18T06:11:35.859Z,2564
2018-09-18T06:12:36.286Z,2576
2018-09-18T06:13:35.847Z,2588
2018-09-18T06:14:35.319Z,2596
2018-09-18T06:15:35.822Z,2608
2018-09-18T06:16:35.815Z,2620
2018-09-18T06:17:35.813Z,2628
2018-09-18T06:18:35.352Z,2636
2018-09-18T06:19:35.294Z,2644
2018-09-18T06:20:35.791Z,2660
2018-09-18T06:21:35.793Z,2676
2018-09-18T06:22:35.786Z,2692
2018-09-18T06:23:35.527Z,2716
2018-09-18T06:24:35.764Z,2732
2018-09-18T06:25:35.763Z,2760
2018-09-18T06:26:35.238Z,2784
2018-09-18T06:27:35.501Z,2804
2018-09-18T06:28:35.746Z,2824
2018-09-18T06:29:35.490Z,2848
2018-09-18T06:30:35.734Z,2864
2018-09-18T06:31:35.732Z,2884
2018-09-18T06:32:35.475Z,2912
2018-09-18T06:33:35.461Z,2928
2018-09-18T06:34:35.463Z,2960
2018-09-18T06:35:35.454Z,2956
2018-09-18T06:36:35.710Z,2960
2018-09-18T06:37:35.442Z,2952
2018-09-18T06:38:35.438Z,2956
2018-09-18T06:39:35.430Z,2948
2018-09-18T06:40:35.693Z,2936
2018-09-18T06:41:35.206Z,2912
2018-09-18T06:42:35.637Z,2900
2018-09-18T06:43:35.410Z,2880
2018-09-18T06:44:35.401Z,2864
2018-09-18T06:45:35.399Z,2840
2018-09-18T06:46:35.397Z,2824
2018-09-18T06:47:35.391Z,2808
2018-09-18T06:48:35.640Z,2800
2018-09-18T06:49:35.645Z,2796
2018-09-18T06:50:34.863Z,2800
2018-09-18T06:51:35.632Z,2804
2018-09-18T06:52:35.615Z,2808
2018-09-18T06:53:35.356Z,2812
2018-09-18T06:54:35.895Z,2812
2018-09-18T06:55:35.603Z,2808
2018-09-18T06:56:35.340Z,2812
2018-09-18T06:57:35.599Z,2808
2018-09-18T06:58:35.333Z,2804
2018-09-18T06:59:35.327Z,2808
2018-09-18T07:00:35.588Z,2812
2018-09-18T07:01:35.321Z,2816
2018-09-18T07:02:35.316Z,2816
2018-09-18T07:03:35.572Z,2820
2018-09-18T07:04:35.048Z,2824
2018-09-18T07:05:35.731Z,2828
2018-09-18T07:06:35.552Z,2836
2018-09-18T07:07:35.548Z,2832
2018-09-18T07:08:35.286Z,2844
2018-09-18T07:09:35.538Z,2852
2018-09-18T07:10:35.531Z,2856
2018-09-18T07:11:35.016Z,2868
2018-09-18T07:12:35.565Z,2876
2018-09-18T07:13:35.518Z,2880
2018-09-18T07:14:35.268Z,2880
2018-09-18T07:15:35.516Z,2884
2018-09-18T07:16:35.517Z,2880
2018-09-18T07:17:35.249Z,2880
2018-09-18T07:18:34.986Z,2884
2018-09-18T07:19:35.245Z,2884
2018-09-18T07:20:35.499Z,2900
2018-09-18T07:21:35.228Z,2908
2018-09-18T07:22:35.484Z,2904
2018-09-18T07:23:35.468Z,2908
2018-09-18T07:24:35.478Z,2908
2018-09-18T07:25:35.216Z,2904
2018-09-18T07:26:35.488Z,2912
2018-09-18T07:27:34.952Z,2904
2018-09-18T07:28:34.943Z,2916
2018-09-18T07:29:35.423Z,2916
2018-09-18T07:30:35.448Z,2924
2018-09-18T07:31:35.446Z,2920
2018-09-18T07:32:34.925Z,2944
2018-09-18T07:33:34.923Z,2952
2018-09-18T07:34:34.927Z,2952
2018-09-18T07:35:35.174Z,2984
2018-09-18T07:36:35.172Z,2996
2018-09-18T07:37:35.167Z,3000
2018-09-18T07:38:35.426Z,3020
2018-09-18T07:39:35.463Z,3032
2018-09-18T07:40:35.429Z,3044
2018-09-18T07:41:35.419Z,3056
2018-09-18T07:42:35.414Z,3068
2018-09-18T07:43:34.893Z,3080
2018-09-18T07:44:35.403Z,3100
2018-09-18T07:45:35.399Z,3112
2018-09-18T07:46:35.394Z,3116
2018-09-18T07:47:35.136Z,3136
2018-09-18T07:48:35.141Z,3168
2018-09-18T07:49:35.389Z,3180
2018-09-18T07:50:35.385Z,3212
2018-09-18T07:51:35.381Z,3212
2018-09-18T07:52:35.136Z,3216
2018-09-18T07:53:34.868Z,3224
2018-09-18T07:54:35.119Z,3260
2018-09-18T07:55:35.121Z,3304
2018-09-18T07:56:35.118Z,3308
2018-09-18T07:57:35.370Z,3324
2018-09-18T07:58:35.361Z,3328
2018-09-18T07:59:35.364Z,3320
2018-09-18T08:00:35.377Z,3292
2018-09-18T08:01:34.843Z,3308
2018-09-18T08:02:35.357Z,3336
2018-09-18T08:03:35.361Z,3412
2018-09-18T08:04:35.358Z,3412
2018-09-18T08:05:35.352Z,3376
2018-09-18T08:06:35.355Z,3356
2018-09-18T08:07:35.092Z,3388
2018-09-18T08:08:35.094Z,3376
2018-09-18T08:09:35.344Z,3360
2018-09-18T08:10:35.091Z,3360
2018-09-18T08:11:35.338Z,3372
2018-09-18T08:12:35.095Z,3400
2018-09-18T08:13:35.339Z,3404
2018-09-18T08:14:35.340Z,3396
2018-09-18T08:15:35.341Z,3424
2018-09-18T08:16:35.079Z,3452
2018-09-18T08:17:35.097Z,3448
2018-09-18T08:18:35.329Z,3432
2018-09-18T08:19:36.482Z,3444
2018-09-18T08:20:35.077Z,3468
2018-09-18T08:21:35.336Z,3456
2018-09-18T08:22:35.335Z,3428
2018-09-18T08:23:35.473Z,3428
2018-09-18T08:24:35.067Z,3436
2018-09-18T08:25:35.619Z,3420
2018-09-18T08:26:34.867Z,3420
2018-09-18T08:27:35.126Z,3416
2018-09-18T08:28:35.334Z,3408
2018-09-18T08:29:35.069Z,3372
2018-09-18T08:30:35.327Z,3400
2018-09-18T08:31:35.073Z,3456
2018-09-18T08:32:35.478Z,3440
2018-09-18T08:33:35.323Z,3416
2018-09-18T08:34:35.333Z,3408
2018-09-18T08:35:35.325Z,3384
2018-09-18T08:36:35.322Z,3376
2018-09-18T08:37:35.065Z,3444
2018-09-18T08:38:35.334Z,3444
2018-09-18T08:39:34.818Z,3444
2018-09-18T08:40:35.372Z,3444
2018-09-18T08:41:35.358Z,3432
2018-09-18T08:42:35.413Z,3428
2018-09-18T08:43:35.077Z,3392
2018-09-18T08:44:35.086Z,3380
2018-09-18T08:45:35.364Z,3384
2018-09-18T08:46:35.118Z,3388
2018-09-18T08:47:35.094Z,3360
2018-09-18T08:48:35.437Z,3348
2018-09-18T08:49:35.345Z,3380
2018-09-18T08:50:35.410Z,3356
2018-09-18T08:51:35.461Z,3340
2018-09-18T08:52:35.409Z,3316
2018-09-18T08:53:35.371Z,3356
2018-09-18T08:54:34.958Z,3352
2018-09-18T08:55:35.081Z,3336
2018-09-18T08:56:35.366Z,3308
2018-09-18T08:57:35.353Z,3308
2018-09-18T08:58:35.413Z,3300
2018-09-18T08:59:35.072Z,3288
2018-09-18T09:00:35.324Z,3268
2018-09-18T09:01:35.090Z,3256
2018-09-18T09:02:35.072Z,3276
2018-09-18T09:03:35.085Z,3260
2018-09-18T09:04:35.499Z,3252
2018-09-18T09:05:35.094Z,3216
2018-09-18T09:06:35.787Z,3216
2018-09-18T09:07:35.910Z,3240
2018-09-18T09:08:35.257Z,3264
2018-09-18T09:09:35.722Z,3184
2018-09-18T09:10:35.565Z,3144
2018-09-18T09:11:35.129Z,3148
2018-09-18T09:12:35.347Z,3100
2018-09-18T09:13:34.575Z,3088
2018-09-18T09:14:35.861Z,3076
2018-09-18T09:15:35.682Z,3108
2018-09-18T09:16:35.334Z,3088
2018-09-18T09:17:35.158Z,3140
2018-09-18T09:18:35.565Z,3092
2018-09-18T09:19:35.133Z,3060
2018-09-18T09:21:35.407Z,3084
2018-09-18T09:22:35.178Z,3112
2018-09-18T09:23:35.104Z,3152
2018-09-18T09:24:35.086Z,3160
2018-09-18T09:25:35.338Z,3168
2018-09-18T09:26:35.695Z,3168
2018-09-18T09:27:35.848Z,3180
2018-09-18T09:28:35.079Z,3204
2018-09-18T09:29:35.365Z,3184
2018-09-18T09:30:35.392Z,3180
2018-09-18T09:31:35.101Z,3160
2018-09-18T09:32:35.372Z,3176
2018-09-18T09:33:35.137Z,3192
2018-09-18T09:34:35.139Z,3164
2018-09-18T09:35:35.433Z,3144
2018-09-18T09:36:34.588Z,3092
2018-09-18T09:37:35.141Z,3064
2018-09-18T09:38:35.369Z,3064
2018-09-18T09:39:35.350Z,3068
2018-09-18T09:40:34.830Z,3060
2018-09-18T09:41:35.097Z,3108
2018-09-18T09:42:35.359Z,3128
2018-09-18T09:43:35.404Z,3104
2018-09-18T09:44:35.350Z,3040
2018-09-18T09:45:35.352Z,3012
2018-09-18T09:46:35.089Z,3000
2018-09-18T09:47:34.841Z,3036
2018-09-18T09:48:35.359Z,3036
2018-09-18T09:49:35.420Z,3088
2018-09-18T09:50:35.104Z,3104
2018-09-18T09:51:35.416Z,3084
2018-09-18T09:52:35.110Z,3092
2018-09-18T09:53:35.118Z,3088
2018-09-18T09:54:35.102Z,3140
2018-09-18T09:55:35.365Z,3168
2018-09-18T09:56:35.355Z,3136
2018-09-18T09:57:34.848Z,3116
2018-09-18T09:58:35.359Z,3096
2018-09-18T09:59:35.378Z,3072
2018-09-18T10:00:35.367Z,3056
2018-09-18T10:01:34.857Z,2984
2018-09-18T10:02:34.857Z,2984
2018-09-18T10:03:35.365Z,2904
2018-09-18T10:04:35.390Z,2976
2018-09-18T10:05:35.377Z,2996
2018-09-18T10:06:34.864Z,3028
2018-09-18T10:07:35.116Z,3016
2018-09-18T10:08:35.375Z,3048
2018-09-18T10:09:35.134Z,3024
2018-09-18T10:10:35.861Z,3008
2018-09-18T10:11:35.374Z,3000
2018-09-18T10:12:35.120Z,2988
2018-09-18T10:13:34.869Z,2992
2018-09-18T10:14:35.394Z,2980
2018-09-18T10:15:35.276Z,2952
2018-09-18T10:16:35.190Z,2928
2018-09-18T10:17:35.454Z,2956
2018-09-18T10:18:35.396Z,2964
2018-09-18T10:19:35.138Z,2944
2018-09-18T10:20:35.424Z,2912
2018-09-18T10:21:35.398Z,2896
2018-09-18T10:22:35.399Z,2872
2018-09-18T10:23:34.909Z,2868
2018-09-18T10:24:35.486Z,2872
2018-09-18T10:25:35.504Z,2860
2018-09-18T10:26:35.585Z,2868
2018-09-18T10:27:35.185Z,2868
2018-09-18T10:28:35.184Z,2888
2018-09-18T10:29:35.447Z,2892
2018-09-18T10:30:35.476Z,2904
2018-09-18T10:31:35.193Z,2932
2018-09-18T10:32:35.234Z,2968
2018-09-18T10:33:35.465Z,3000
2018-09-18T10:34:35.442Z,2992
2018-09-18T10:35:35.464Z,2944
2018-09-18T10:36:35.490Z,2904
2018-09-18T10:37:35.241Z,2900
2018-09-18T10:38:35.244Z,2900
2018-09-18T10:39:35.178Z,2928
2018-09-18T10:40:35.175Z,2936
2018-09-18T10:41:36.252Z,2908
2018-09-18T10:42:35.467Z,2888
2018-09-18T10:43:35.541Z,2876
2018-09-18T10:44:35.203Z,2872
2018-09-18T10:45:35.498Z,2848
2018-09-18T10:46:35.507Z,2824
2018-09-18T10:47:35.216Z,2792
2018-09-18T10:48:35.446Z,2780
2018-09-18T10:49:35.965Z,2772
2018-09-18T10:50:35.194Z,2772
2018-09-18T10:51:35.447Z,2768
2018-09-18T10:52:35.275Z,2780
2018-09-18T10:53:35.459Z,2800
2018-09-18T10:54:35.463Z,2808
2018-09-18T10:55:36.010Z,2816
2018-09-18T10:56:35.463Z,2808
2018-09-18T10:57:35.213Z,2784
2018-09-18T10:58:34.944Z,2772
2018-09-18T10:59:35.215Z,2740
2018-09-18T11:00:35.268Z,2720
2018-09-18T11:01:35.537Z,2732
2018-09-18T11:02:35.496Z,2740
2018-09-18T11:03:35.522Z,2756
2018-09-18T11:04:35.228Z,2768
2018-09-18T11:05:35.006Z,2768
2018-09-18T11:06:35.275Z,2772
2018-09-18T11:07:35.082Z,2788
2018-09-18T11:08:35.734Z,2776
2018-09-18T11:09:35.434Z,2776
2018-09-18T11:10:35.283Z,2756
2018-09-18T11:11:35.950Z,2728
2018-09-18T11:12:34.980Z,2712
2018-09-18T11:13:35.929Z,2708
2018-09-18T11:14:35.406Z,2712
2018-09-18T11:15:35.624Z,2704
2018-09-18T11:16:35.312Z,2712
2018-09-18T11:17:35.282Z,2724
2018-09-18T11:18:35.048Z,2732
2018-09-18T11:19:35.352Z,2724
2018-09-18T11:20:35.481Z,2708
2018-09-18T11:21:35.591Z,2704
2018-09-18T11:22:36.257Z,2708
2018-09-18T11:23:35.516Z,2700
2018-09-18T11:24:35.650Z,2688
2018-09-18T11:25:35.631Z,2684
2018-09-18T11:26:35.267Z,2676
2018-09-18T11:27:35.359Z,2676
2018-09-18T11:28:35.365Z,2672
2018-09-18T11:29:35.576Z,2664
2018-09-18T11:30:35.624Z,2664
2018-09-18T11:31:35.515Z,2652
2018-09-18T11:32:35.736Z,2652
2018-09-18T11:33:35.570Z,2644
2018-09-18T11:34:35.588Z,2644
2018-09-18T11:35:35.545Z,2628
2018-09-18T11:36:35.547Z,2624
2018-09-18T11:37:35.567Z,2612
2018-09-18T11:38:35.036Z,2604
2018-09-18T11:39:35.562Z,2604
2018-09-18T11:40:35.298Z,2612
2018-09-18T11:41:35.561Z,2612
2018-09-18T11:42:35.566Z,2604
2018-09-18T11:43:35.049Z,2612
2018-09-18T11:44:35.049Z,2620
2018-09-18T11:45:35.707Z,2636
2018-09-18T11:46:35.808Z,2636
2018-09-18T11:47:35.321Z,2636
2018-09-18T11:48:35.581Z,2644
2018-09-18T11:49:35.327Z,2636
2018-09-18T11:50:35.335Z,2624
2018-09-18T11:51:35.844Z,2628
2018-09-18T11:52:35.596Z,2636
2018-09-18T11:53:35.347Z,2644
2018-09-18T11:54:35.339Z,2636
2018-09-18T11:55:35.338Z,2628
2018-09-18T11:56:35.694Z,2616
2018-09-18T11:57:35.599Z,2620
2018-09-18T11:58:35.860Z,2620
2018-09-18T11:59:35.605Z,2608
2018-09-18T12:00:35.612Z,2596
2018-09-18T12:01:35.098Z,2612
2018-09-18T12:02:35.412Z,2624
2018-09-18T12:03:35.356Z,2640
2018-09-18T12:04:35.923Z,2656
2018-09-18T12:05:35.364Z,2668
2018-09-18T12:06:35.621Z,2664
2018-09-18T12:07:35.362Z,2672
2018-09-18T12:08:35.659Z,2684
2018-09-18T12:09:35.372Z,2684
2018-09-18T12:10:35.115Z,2680
2018-09-18T12:11:35.865Z,2676
2018-09-18T12:12:35.390Z,2664
2018-09-18T12:13:35.397Z,2656
2018-09-18T12:14:35.389Z,2660
2018-09-18T12:15:35.645Z,2672
2018-09-18T12:16:35.386Z,2684
2018-09-18T12:17:36.596Z,2680
2018-09-18T12:18:35.417Z,2680
2018-09-18T12:19:35.402Z,2680
2018-09-18T12:20:35.653Z,2692
2018-09-18T12:21:35.407Z,2680
2018-09-18T12:22:35.443Z,2672
2018-09-18T12:23:35.666Z,2676
2018-09-18T12:24:35.415Z,2668
2018-09-18T12:25:35.673Z,2664
2018-09-18T12:26:35.678Z,2668
2018-09-18T12:27:35.197Z,2676
2018-09-18T12:28:35.922Z,2680
2018-09-18T12:29:35.677Z,2696
2018-09-18T12:30:35.421Z,2700
2018-09-18T12:31:35.423Z,2728
2018-09-18T12:32:35.428Z,2752
2018-09-18T12:33:35.684Z,2760
2018-09-18T12:34:35.696Z,2768
2018-09-18T12:35:35.920Z,2680
2018-09-18T12:36:35.708Z,2700
2018-09-18T12:37:35.184Z,2784
2018-09-18T12:38:35.488Z,2868
2018-09-18T12:39:35.703Z,2968
2018-09-18T12:40:35.452Z,3196
2018-09-18T12:41:36.039Z,3524
2018-09-18T12:42:36.086Z,3880
2018-09-18T12:43:35.706Z,4184
2018-09-18T12:44:35.202Z,4196
2018-09-18T12:45:35.467Z,4176
2018-09-18T12:46:35.474Z,3796
2018-09-18T12:47:35.511Z,3416
2018-09-18T12:48:35.511Z,3124
2018-09-18T12:49:36.184Z,2976
2018-09-18T12:50:35.935Z,2880
2018-09-18T12:51:35.214Z,2828
2018-09-18T12:52:35.477Z,2552
2018-09-18T12:53:35.842Z,2628
2018-09-18T12:54:35.740Z,2832
2018-09-18T12:55:35.485Z,2760
2018-09-18T12:56:35.494Z,2688
2018-09-18T12:57:36.097Z,2656
2018-09-18T12:58:36.353Z,2656
2018-09-18T12:59:36.139Z,2672
2018-09-18T13:00:35.750Z,2692
2018-09-18T13:01:35.762Z,2712
2018-09-18T13:02:35.243Z,2712
2018-09-18T13:03:35.756Z,2728
2018-09-18T13:04:35.504Z,2800
2018-09-18T13:05:35.839Z,2808
2018-09-18T13:06:36.766Z,2828
2018-09-18T13:07:35.697Z,2804
2018-09-18T13:08:35.256Z,2764
2018-09-18T13:09:35.779Z,2708
2018-09-18T13:10:35.528Z,2640
2018-09-18T13:11:35.894Z,2596
2018-09-18T13:12:35.816Z,2556
2018-09-18T13:13:35.331Z,2540
2018-09-18T13:14:35.788Z,2528
2018-09-18T13:15:35.582Z,2524
2018-09-18T13:16:35.840Z,2524
2018-09-18T13:17:36.408Z,2524
2018-09-18T13:18:35.799Z,2544
2018-09-18T13:19:35.546Z,2548
2018-09-18T13:20:35.593Z,2540
2018-09-18T13:21:35.910Z,2556
2018-09-18T13:22:35.828Z,2448
2018-09-18T13:23:35.619Z,2552
2018-09-18T13:24:35.817Z,2548
2018-09-18T13:25:35.820Z,2600
2018-09-18T13:26:35.558Z,2300
2018-09-18T13:27:35.841Z,2348
2018-09-18T13:28:35.822Z,2512
2018-09-18T13:29:35.569Z,2572
2018-09-18T13:30:36.394Z,2568
2018-09-18T13:31:35.987Z,2564
2018-09-18T13:32:35.622Z,2548
2018-09-18T13:33:35.572Z,2540
2018-09-18T13:34:35.837Z,2624
2018-09-18T13:35:35.840Z,2656
2018-09-18T13:36:36.044Z,2644
2018-09-18T13:37:35.595Z,2636
2018-09-18T13:38:35.591Z,2700
2018-09-18T13:39:35.844Z,2756
2018-09-18T13:40:35.590Z,2936
2018-09-18T13:41:35.352Z,3092
2018-09-18T13:42:35.872Z,3116
2018-09-18T13:43:35.596Z,3012
2018-09-18T13:44:35.860Z,2812
2018-09-18T13:45:35.599Z,2616
2018-09-18T13:46:36.593Z,2556
2018-09-18T13:47:35.862Z,2572
2018-09-18T13:48:35.872Z,2564